<?xml version="1.0" encoding="UTF-8" standalone="no" ?>
<gpx xmlns="http://www.topografix.com/GPX/1/1" xmlns:xsi="http://www.w3.org/2001/XMLSchema-instance" xsi:schemaLocation="http://www.topografix.com/GPX/1/1 http://www.topografix.com/GPX/1/1/gpx.xsd" version="1.1" creator="VisuGPX - https://www.visugpx.com">
  <metadata>
    <name>Pic d'Esbibat - Pic de la Journalade</name>
    <desc><![CDATA[Montée raide au départ puis marche sur les crêtes. Sentier pas suivi de près car il y avait encore des névés. 
Très bon accueil à l'auberge de la Sapinière. ]]></desc>
  </metadata>
  <trk>
    <name><![CDATA[Pic d'Estibat - Pic de la Journalade]]></name>
    <trkseg>
      <trkpt lat="42.89862" lon="1.45276">
        <ele>1252</ele>
        <time>2026-03-24T08:26:02Z</time>
      </trkpt>
      <trkpt lat="42.89845" lon="1.45282">
        <ele>1254</ele>
        <time>2026-03-24T08:26:28Z</time>
      </trkpt>
      <trkpt lat="42.89828" lon="1.45293">
        <ele>1256</ele>
        <time>2026-03-24T08:26:55Z</time>
      </trkpt>
      <trkpt lat="42.89821" lon="1.45301">
        <ele>1260</ele>
        <time>2026-03-24T08:27:07Z</time>
      </trkpt>
      <trkpt lat="42.89812" lon="1.45304">
        <ele>1263</ele>
        <time>2026-03-24T08:27:23Z</time>
      </trkpt>
      <trkpt lat="42.89794" lon="1.45312">
        <ele>1264</ele>
        <time>2026-03-24T08:27:46Z</time>
      </trkpt>
      <trkpt lat="42.89687" lon="1.45382">
        <ele>1293</ele>
        <time>2026-03-24T08:30:58Z</time>
      </trkpt>
      <trkpt lat="42.89671" lon="1.45392">
        <ele>1295</ele>
        <time>2026-03-24T08:31:23Z</time>
      </trkpt>
      <trkpt lat="42.89659" lon="1.45373">
        <ele>1299</ele>
        <time>2026-03-24T08:33:44Z</time>
      </trkpt>
      <trkpt lat="42.8966" lon="1.45348">
        <ele>1305</ele>
        <time>2026-03-24T08:34:08Z</time>
      </trkpt>
      <trkpt lat="42.89657" lon="1.45323">
        <ele>1313</ele>
        <time>2026-03-24T08:34:35Z</time>
      </trkpt>
      <trkpt lat="42.89651" lon="1.453">
        <ele>1318</ele>
        <time>2026-03-24T08:35:06Z</time>
      </trkpt>
      <trkpt lat="42.89641" lon="1.45279">
        <ele>1321</ele>
        <time>2026-03-24T08:35:36Z</time>
      </trkpt>
      <trkpt lat="42.89629" lon="1.45261">
        <ele>1330</ele>
        <time>2026-03-24T08:36:18Z</time>
      </trkpt>
      <trkpt lat="42.8962" lon="1.45239">
        <ele>1334</ele>
        <time>2026-03-24T08:36:56Z</time>
      </trkpt>
      <trkpt lat="42.89605" lon="1.45224">
        <ele>1340</ele>
        <time>2026-03-24T08:41:33Z</time>
      </trkpt>
      <trkpt lat="42.89591" lon="1.45208">
        <ele>1346</ele>
        <time>2026-03-24T08:42:15Z</time>
      </trkpt>
      <trkpt lat="42.89577" lon="1.45192">
        <ele>1354</ele>
        <time>2026-03-24T08:43:18Z</time>
      </trkpt>
      <trkpt lat="42.8956" lon="1.45183">
        <ele>1360</ele>
        <time>2026-03-24T08:44:18Z</time>
      </trkpt>
      <trkpt lat="42.89544" lon="1.45171">
        <ele>1367</ele>
        <time>2026-03-24T08:45:00Z</time>
      </trkpt>
      <trkpt lat="42.89532" lon="1.45152">
        <ele>1375</ele>
        <time>2026-03-24T08:46:18Z</time>
      </trkpt>
      <trkpt lat="42.89527" lon="1.45128">
        <ele>1382</ele>
        <time>2026-03-24T08:46:51Z</time>
      </trkpt>
      <trkpt lat="42.89516" lon="1.45108">
        <ele>1391</ele>
        <time>2026-03-24T08:47:53Z</time>
      </trkpt>
      <trkpt lat="42.895" lon="1.45099">
        <ele>1400</ele>
        <time>2026-03-24T08:48:34Z</time>
      </trkpt>
      <trkpt lat="42.89483" lon="1.45091">
        <ele>1401</ele>
        <time>2026-03-24T08:49:08Z</time>
      </trkpt>
      <trkpt lat="42.89465" lon="1.45089">
        <ele>1403</ele>
        <time>2026-03-24T08:49:47Z</time>
      </trkpt>
      <trkpt lat="42.89447" lon="1.45092">
        <ele>1405</ele>
        <time>2026-03-24T08:50:40Z</time>
      </trkpt>
      <trkpt lat="42.89428" lon="1.45091">
        <ele>1409</ele>
        <time>2026-03-24T08:51:01Z</time>
      </trkpt>
      <trkpt lat="42.8941" lon="1.45091">
        <ele>1412</ele>
        <time>2026-03-24T08:51:20Z</time>
      </trkpt>
      <trkpt lat="42.89401" lon="1.45095">
        <ele>1413</ele>
        <time>2026-03-24T08:51:32Z</time>
      </trkpt>
      <trkpt lat="42.89392" lon="1.45098">
        <ele>1411</ele>
        <time>2026-03-24T08:51:41Z</time>
      </trkpt>
      <trkpt lat="42.89383" lon="1.45101">
        <ele>1408</ele>
        <time>2026-03-24T08:51:51Z</time>
      </trkpt>
      <trkpt lat="42.89374" lon="1.45101">
        <ele>1410</ele>
        <time>2026-03-24T08:51:59Z</time>
      </trkpt>
      <trkpt lat="42.89364" lon="1.451">
        <ele>1412</ele>
        <time>2026-03-24T08:52:07Z</time>
      </trkpt>
      <trkpt lat="42.89355" lon="1.451">
        <ele>1411</ele>
        <time>2026-03-24T08:52:16Z</time>
      </trkpt>
      <trkpt lat="42.89345" lon="1.45102">
        <ele>1412</ele>
        <time>2026-03-24T08:52:28Z</time>
      </trkpt>
      <trkpt lat="42.89336" lon="1.451">
        <ele>1416</ele>
        <time>2026-03-24T08:52:38Z</time>
      </trkpt>
      <trkpt lat="42.89327" lon="1.451">
        <ele>1418</ele>
        <time>2026-03-24T08:52:54Z</time>
      </trkpt>
      <trkpt lat="42.89236" lon="1.45116">
        <ele>1443</ele>
        <time>2026-03-24T09:00:45Z</time>
      </trkpt>
      <trkpt lat="42.8922" lon="1.45129">
        <ele>1449</ele>
        <time>2026-03-24T09:01:43Z</time>
      </trkpt>
      <trkpt lat="42.89126" lon="1.45074">
        <ele>1495</ele>
        <time>2026-03-24T09:14:29Z</time>
      </trkpt>
      <trkpt lat="42.89112" lon="1.45057">
        <ele>1500</ele>
        <time>2026-03-24T09:15:40Z</time>
      </trkpt>
      <trkpt lat="42.88997" lon="1.44975">
        <ele>1542</ele>
        <time>2026-03-24T09:22:13Z</time>
      </trkpt>
      <trkpt lat="42.8899" lon="1.44952">
        <ele>1545</ele>
        <time>2026-03-24T09:22:44Z</time>
      </trkpt>
      <trkpt lat="42.88984" lon="1.44929">
        <ele>1548</ele>
        <time>2026-03-24T09:23:11Z</time>
      </trkpt>
      <trkpt lat="42.88964" lon="1.4488">
        <ele>1557</ele>
        <time>2026-03-24T09:24:55Z</time>
      </trkpt>
      <trkpt lat="42.88948" lon="1.44831">
        <ele>1569</ele>
        <time>2026-03-24T09:26:28Z</time>
      </trkpt>
      <trkpt lat="42.88915" lon="1.4474">
        <ele>1593</ele>
        <time>2026-03-24T09:29:19Z</time>
      </trkpt>
      <trkpt lat="42.88911" lon="1.44716">
        <ele>1598</ele>
        <time>2026-03-24T09:29:51Z</time>
      </trkpt>
      <trkpt lat="42.88903" lon="1.44694">
        <ele>1602</ele>
        <time>2026-03-24T09:30:34Z</time>
      </trkpt>
      <trkpt lat="42.88892" lon="1.44675">
        <ele>1607</ele>
        <time>2026-03-24T09:31:23Z</time>
      </trkpt>
      <trkpt lat="42.8884" lon="1.44594">
        <ele>1638</ele>
        <time>2026-03-24T09:35:21Z</time>
      </trkpt>
      <trkpt lat="42.88794" lon="1.44554">
        <ele>1657</ele>
        <time>2026-03-24T09:40:40Z</time>
      </trkpt>
      <trkpt lat="42.88782" lon="1.44548">
        <ele>1659</ele>
        <time>2026-03-24T09:41:02Z</time>
      </trkpt>
      <trkpt lat="42.88774" lon="1.44571">
        <ele>1659</ele>
        <time>2026-03-24T10:06:00Z</time>
      </trkpt>
      <trkpt lat="42.88763" lon="1.4459">
        <ele>1658</ele>
        <time>2026-03-24T10:06:45Z</time>
      </trkpt>
      <trkpt lat="42.88754" lon="1.44601">
        <ele>1654</ele>
        <time>2026-03-24T10:07:03Z</time>
      </trkpt>
      <trkpt lat="42.88746" lon="1.44608">
        <ele>1652</ele>
        <time>2026-03-24T10:07:14Z</time>
      </trkpt>
      <trkpt lat="42.88739" lon="1.44616">
        <ele>1650</ele>
        <time>2026-03-24T10:07:25Z</time>
      </trkpt>
      <trkpt lat="42.88731" lon="1.44624">
        <ele>1648</ele>
        <time>2026-03-24T10:07:36Z</time>
      </trkpt>
      <trkpt lat="42.88724" lon="1.44632">
        <ele>1645</ele>
        <time>2026-03-24T10:07:49Z</time>
      </trkpt>
      <trkpt lat="42.88717" lon="1.4464">
        <ele>1644</ele>
        <time>2026-03-24T10:08:02Z</time>
      </trkpt>
      <trkpt lat="42.88711" lon="1.4465">
        <ele>1640</ele>
        <time>2026-03-24T10:08:13Z</time>
      </trkpt>
      <trkpt lat="42.88705" lon="1.4466">
        <ele>1639</ele>
        <time>2026-03-24T10:08:24Z</time>
      </trkpt>
      <trkpt lat="42.887" lon="1.4467">
        <ele>1635</ele>
        <time>2026-03-24T10:08:38Z</time>
      </trkpt>
      <trkpt lat="42.88694" lon="1.4468">
        <ele>1634</ele>
        <time>2026-03-24T10:08:47Z</time>
      </trkpt>
      <trkpt lat="42.8869" lon="1.44691">
        <ele>1631</ele>
        <time>2026-03-24T10:08:58Z</time>
      </trkpt>
      <trkpt lat="42.88686" lon="1.44703">
        <ele>1630</ele>
        <time>2026-03-24T10:09:08Z</time>
      </trkpt>
      <trkpt lat="42.88681" lon="1.44712">
        <ele>1629</ele>
        <time>2026-03-24T10:09:17Z</time>
      </trkpt>
      <trkpt lat="42.88674" lon="1.44723">
        <ele>1627</ele>
        <time>2026-03-24T10:09:28Z</time>
      </trkpt>
      <trkpt lat="42.88668" lon="1.44732">
        <ele>1627</ele>
        <time>2026-03-24T10:09:40Z</time>
      </trkpt>
      <trkpt lat="42.88662" lon="1.4474">
        <ele>1625</ele>
        <time>2026-03-24T10:09:52Z</time>
      </trkpt>
      <trkpt lat="42.88656" lon="1.4475">
        <ele>1624</ele>
        <time>2026-03-24T10:10:03Z</time>
      </trkpt>
      <trkpt lat="42.88648" lon="1.44757">
        <ele>1622</ele>
        <time>2026-03-24T10:10:15Z</time>
      </trkpt>
      <trkpt lat="42.88637" lon="1.44776">
        <ele>1617</ele>
        <time>2026-03-24T10:10:54Z</time>
      </trkpt>
      <trkpt lat="42.88628" lon="1.44782">
        <ele>1613</ele>
        <time>2026-03-24T10:11:04Z</time>
      </trkpt>
      <trkpt lat="42.88622" lon="1.44791">
        <ele>1612</ele>
        <time>2026-03-24T10:11:12Z</time>
      </trkpt>
      <trkpt lat="42.88613" lon="1.44796">
        <ele>1611</ele>
        <time>2026-03-24T10:11:18Z</time>
      </trkpt>
      <trkpt lat="42.88604" lon="1.44802">
        <ele>1610</ele>
        <time>2026-03-24T10:11:25Z</time>
      </trkpt>
      <trkpt lat="42.88597" lon="1.44809">
        <ele>1608</ele>
        <time>2026-03-24T10:11:33Z</time>
      </trkpt>
      <trkpt lat="42.88588" lon="1.44816">
        <ele>1607</ele>
        <time>2026-03-24T10:11:43Z</time>
      </trkpt>
      <trkpt lat="42.8858" lon="1.44822">
        <ele>1605</ele>
        <time>2026-03-24T10:11:51Z</time>
      </trkpt>
      <trkpt lat="42.88572" lon="1.4483">
        <ele>1604</ele>
        <time>2026-03-24T10:12:01Z</time>
      </trkpt>
      <trkpt lat="42.88564" lon="1.44836">
        <ele>1602</ele>
        <time>2026-03-24T10:12:14Z</time>
      </trkpt>
      <trkpt lat="42.88556" lon="1.44841">
        <ele>1596</ele>
        <time>2026-03-24T10:12:25Z</time>
      </trkpt>
      <trkpt lat="42.88548" lon="1.44849">
        <ele>1593</ele>
        <time>2026-03-24T10:12:36Z</time>
      </trkpt>
      <trkpt lat="42.8854" lon="1.44854">
        <ele>1592</ele>
        <time>2026-03-24T10:12:45Z</time>
      </trkpt>
      <trkpt lat="42.88533" lon="1.44862">
        <ele>1591</ele>
        <time>2026-03-24T10:12:55Z</time>
      </trkpt>
      <trkpt lat="42.88525" lon="1.44869">
        <ele>1590</ele>
        <time>2026-03-24T10:13:04Z</time>
      </trkpt>
      <trkpt lat="42.88515" lon="1.44871">
        <ele>1590</ele>
        <time>2026-03-24T10:13:13Z</time>
      </trkpt>
      <trkpt lat="42.88506" lon="1.44874">
        <ele>1589</ele>
        <time>2026-03-24T10:13:23Z</time>
      </trkpt>
      <trkpt lat="42.88498" lon="1.44881">
        <ele>1589</ele>
        <time>2026-03-24T10:13:33Z</time>
      </trkpt>
      <trkpt lat="42.88491" lon="1.4489">
        <ele>1588</ele>
        <time>2026-03-24T10:13:43Z</time>
      </trkpt>
      <trkpt lat="42.88483" lon="1.44897">
        <ele>1587</ele>
        <time>2026-03-24T10:13:54Z</time>
      </trkpt>
      <trkpt lat="42.88467" lon="1.44908">
        <ele>1585</ele>
        <time>2026-03-24T10:15:19Z</time>
      </trkpt>
      <trkpt lat="42.8845" lon="1.44918">
        <ele>1579</ele>
        <time>2026-03-24T10:15:46Z</time>
      </trkpt>
      <trkpt lat="42.88439" lon="1.44939">
        <ele>1574</ele>
        <time>2026-03-24T10:16:12Z</time>
      </trkpt>
      <trkpt lat="42.88428" lon="1.44958">
        <ele>1571</ele>
        <time>2026-03-24T10:16:31Z</time>
      </trkpt>
      <trkpt lat="42.88421" lon="1.44968">
        <ele>1569</ele>
        <time>2026-03-24T10:16:42Z</time>
      </trkpt>
      <trkpt lat="42.88415" lon="1.44976">
        <ele>1565</ele>
        <time>2026-03-24T10:16:52Z</time>
      </trkpt>
      <trkpt lat="42.88409" lon="1.44986">
        <ele>1564</ele>
        <time>2026-03-24T10:17:01Z</time>
      </trkpt>
      <trkpt lat="42.88403" lon="1.44996">
        <ele>1563</ele>
        <time>2026-03-24T10:17:10Z</time>
      </trkpt>
      <trkpt lat="42.88399" lon="1.45008">
        <ele>1565</ele>
        <time>2026-03-24T10:17:38Z</time>
      </trkpt>
      <trkpt lat="42.88388" lon="1.45028">
        <ele>1568</ele>
        <time>2026-03-24T10:17:53Z</time>
      </trkpt>
      <trkpt lat="42.88382" lon="1.45038">
        <ele>1573</ele>
        <time>2026-03-24T10:17:59Z</time>
      </trkpt>
      <trkpt lat="42.88379" lon="1.4505">
        <ele>1573</ele>
        <time>2026-03-24T10:18:17Z</time>
      </trkpt>
      <trkpt lat="42.88374" lon="1.4506">
        <ele>1572</ele>
        <time>2026-03-24T10:18:31Z</time>
      </trkpt>
      <trkpt lat="42.88368" lon="1.45069">
        <ele>1572</ele>
        <time>2026-03-24T10:18:43Z</time>
      </trkpt>
      <trkpt lat="42.88364" lon="1.45082">
        <ele>1572</ele>
        <time>2026-03-24T10:18:54Z</time>
      </trkpt>
      <trkpt lat="42.88358" lon="1.45091">
        <ele>1574</ele>
        <time>2026-03-24T10:19:01Z</time>
      </trkpt>
      <trkpt lat="42.88353" lon="1.45102">
        <ele>1572</ele>
        <time>2026-03-24T10:19:15Z</time>
      </trkpt>
      <trkpt lat="42.88348" lon="1.45113">
        <ele>1571</ele>
        <time>2026-03-24T10:19:27Z</time>
      </trkpt>
      <trkpt lat="42.88344" lon="1.45124">
        <ele>1569</ele>
        <time>2026-03-24T10:19:38Z</time>
      </trkpt>
      <trkpt lat="42.88339" lon="1.45135">
        <ele>1569</ele>
        <time>2026-03-24T10:19:49Z</time>
      </trkpt>
      <trkpt lat="42.88334" lon="1.45146">
        <ele>1569</ele>
        <time>2026-03-24T10:19:59Z</time>
      </trkpt>
      <trkpt lat="42.88328" lon="1.45155">
        <ele>1568</ele>
        <time>2026-03-24T10:20:11Z</time>
      </trkpt>
      <trkpt lat="42.88323" lon="1.45166">
        <ele>1568</ele>
        <time>2026-03-24T10:20:22Z</time>
      </trkpt>
      <trkpt lat="42.88318" lon="1.45177">
        <ele>1569</ele>
        <time>2026-03-24T10:20:32Z</time>
      </trkpt>
      <trkpt lat="42.88314" lon="1.45188">
        <ele>1571</ele>
        <time>2026-03-24T10:20:44Z</time>
      </trkpt>
      <trkpt lat="42.88314" lon="1.452">
        <ele>1569</ele>
        <time>2026-03-24T10:21:03Z</time>
      </trkpt>
      <trkpt lat="42.88305" lon="1.45222">
        <ele>1573</ele>
        <time>2026-03-24T10:21:31Z</time>
      </trkpt>
      <trkpt lat="42.88303" lon="1.45247">
        <ele>1576</ele>
        <time>2026-03-24T10:22:04Z</time>
      </trkpt>
      <trkpt lat="42.88299" lon="1.45271">
        <ele>1580</ele>
        <time>2026-03-24T10:22:38Z</time>
      </trkpt>
      <trkpt lat="42.88291" lon="1.45293">
        <ele>1586</ele>
        <time>2026-03-24T10:23:06Z</time>
      </trkpt>
      <trkpt lat="42.88275" lon="1.45304">
        <ele>1588</ele>
        <time>2026-03-24T10:23:36Z</time>
      </trkpt>
      <trkpt lat="42.88262" lon="1.45291">
        <ele>1593</ele>
        <time>2026-03-24T10:30:46Z</time>
      </trkpt>
      <trkpt lat="42.8825" lon="1.45292">
        <ele>1588</ele>
        <time>2026-03-24T10:31:54Z</time>
      </trkpt>
      <trkpt lat="42.88232" lon="1.45297">
        <ele>1587</ele>
        <time>2026-03-24T10:32:25Z</time>
      </trkpt>
      <trkpt lat="42.88223" lon="1.45301">
        <ele>1585</ele>
        <time>2026-03-24T10:32:39Z</time>
      </trkpt>
      <trkpt lat="42.88215" lon="1.45306">
        <ele>1584</ele>
        <time>2026-03-24T10:32:51Z</time>
      </trkpt>
      <trkpt lat="42.88196" lon="1.45304">
        <ele>1586</ele>
        <time>2026-03-24T10:33:14Z</time>
      </trkpt>
      <trkpt lat="42.88182" lon="1.45305">
        <ele>1586</ele>
        <time>2026-03-24T10:33:31Z</time>
      </trkpt>
      <trkpt lat="42.88172" lon="1.45307">
        <ele>1587</ele>
        <time>2026-03-24T10:33:41Z</time>
      </trkpt>
      <trkpt lat="42.88154" lon="1.45309">
        <ele>1589</ele>
        <time>2026-03-24T10:34:10Z</time>
      </trkpt>
      <trkpt lat="42.88136" lon="1.45314">
        <ele>1592</ele>
        <time>2026-03-24T10:34:55Z</time>
      </trkpt>
      <trkpt lat="42.88118" lon="1.45319">
        <ele>1594</ele>
        <time>2026-03-24T10:35:21Z</time>
      </trkpt>
      <trkpt lat="42.88101" lon="1.45323">
        <ele>1597</ele>
        <time>2026-03-24T10:35:43Z</time>
      </trkpt>
      <trkpt lat="42.88084" lon="1.45334">
        <ele>1599</ele>
        <time>2026-03-24T10:36:11Z</time>
      </trkpt>
      <trkpt lat="42.88069" lon="1.45348">
        <ele>1601</ele>
        <time>2026-03-24T10:36:39Z</time>
      </trkpt>
      <trkpt lat="42.88056" lon="1.45365">
        <ele>1605</ele>
        <time>2026-03-24T10:37:24Z</time>
      </trkpt>
      <trkpt lat="42.88043" lon="1.45382">
        <ele>1609</ele>
        <time>2026-03-24T10:37:57Z</time>
      </trkpt>
      <trkpt lat="42.88028" lon="1.45398">
        <ele>1611</ele>
        <time>2026-03-24T10:38:53Z</time>
      </trkpt>
      <trkpt lat="42.88015" lon="1.45415">
        <ele>1614</ele>
        <time>2026-03-24T10:39:35Z</time>
      </trkpt>
      <trkpt lat="42.87998" lon="1.45423">
        <ele>1616</ele>
        <time>2026-03-24T10:40:03Z</time>
      </trkpt>
      <trkpt lat="42.87979" lon="1.45429">
        <ele>1616</ele>
        <time>2026-03-24T10:40:29Z</time>
      </trkpt>
      <trkpt lat="42.87961" lon="1.45424">
        <ele>1618</ele>
        <time>2026-03-24T10:41:26Z</time>
      </trkpt>
      <trkpt lat="42.87943" lon="1.45427">
        <ele>1618</ele>
        <time>2026-03-24T10:41:50Z</time>
      </trkpt>
      <trkpt lat="42.8793" lon="1.45408">
        <ele>1618</ele>
        <time>2026-03-24T10:43:54Z</time>
      </trkpt>
      <trkpt lat="42.8792" lon="1.45387">
        <ele>1615</ele>
        <time>2026-03-24T10:44:10Z</time>
      </trkpt>
      <trkpt lat="42.87906" lon="1.45371">
        <ele>1611</ele>
        <time>2026-03-24T10:46:07Z</time>
      </trkpt>
      <trkpt lat="42.87897" lon="1.45367">
        <ele>1609</ele>
        <time>2026-03-24T10:46:18Z</time>
      </trkpt>
      <trkpt lat="42.87889" lon="1.45361">
        <ele>1609</ele>
        <time>2026-03-24T10:46:30Z</time>
      </trkpt>
      <trkpt lat="42.87872" lon="1.45353">
        <ele>1607</ele>
        <time>2026-03-24T10:46:53Z</time>
      </trkpt>
      <trkpt lat="42.87855" lon="1.45343">
        <ele>1606</ele>
        <time>2026-03-24T10:47:15Z</time>
      </trkpt>
      <trkpt lat="42.87837" lon="1.45341">
        <ele>1606</ele>
        <time>2026-03-24T10:47:38Z</time>
      </trkpt>
      <trkpt lat="42.87819" lon="1.45337">
        <ele>1606</ele>
        <time>2026-03-24T10:48:05Z</time>
      </trkpt>
      <trkpt lat="42.87801" lon="1.45333">
        <ele>1604</ele>
        <time>2026-03-24T10:48:30Z</time>
      </trkpt>
      <trkpt lat="42.87783" lon="1.45324">
        <ele>1604</ele>
        <time>2026-03-24T10:48:52Z</time>
      </trkpt>
      <trkpt lat="42.87775" lon="1.45319">
        <ele>1601</ele>
        <time>2026-03-24T10:49:03Z</time>
      </trkpt>
      <trkpt lat="42.87766" lon="1.45316">
        <ele>1601</ele>
        <time>2026-03-24T10:49:15Z</time>
      </trkpt>
      <trkpt lat="42.87757" lon="1.4531">
        <ele>1601</ele>
        <time>2026-03-24T10:49:27Z</time>
      </trkpt>
      <trkpt lat="42.8774" lon="1.453">
        <ele>1601</ele>
        <time>2026-03-24T10:49:56Z</time>
      </trkpt>
      <trkpt lat="42.87722" lon="1.45303">
        <ele>1602</ele>
        <time>2026-03-24T10:50:22Z</time>
      </trkpt>
      <trkpt lat="42.87704" lon="1.45308">
        <ele>1605</ele>
        <time>2026-03-24T10:50:48Z</time>
      </trkpt>
      <trkpt lat="42.87686" lon="1.4531">
        <ele>1608</ele>
        <time>2026-03-24T10:51:16Z</time>
      </trkpt>
      <trkpt lat="42.87668" lon="1.45317">
        <ele>1610</ele>
        <time>2026-03-24T10:51:48Z</time>
      </trkpt>
      <trkpt lat="42.8765" lon="1.45314">
        <ele>1613</ele>
        <time>2026-03-24T10:52:21Z</time>
      </trkpt>
      <trkpt lat="42.87632" lon="1.45319">
        <ele>1616</ele>
        <time>2026-03-24T10:53:34Z</time>
      </trkpt>
      <trkpt lat="42.87616" lon="1.45306">
        <ele>1614</ele>
        <time>2026-03-24T10:54:20Z</time>
      </trkpt>
      <trkpt lat="42.87608" lon="1.453">
        <ele>1613</ele>
        <time>2026-03-24T10:54:28Z</time>
      </trkpt>
      <trkpt lat="42.87599" lon="1.45295">
        <ele>1613</ele>
        <time>2026-03-24T10:54:37Z</time>
      </trkpt>
      <trkpt lat="42.87591" lon="1.45291">
        <ele>1612</ele>
        <time>2026-03-24T10:54:45Z</time>
      </trkpt>
      <trkpt lat="42.87584" lon="1.45282">
        <ele>1611</ele>
        <time>2026-03-24T10:54:53Z</time>
      </trkpt>
      <trkpt lat="42.87576" lon="1.45276">
        <ele>1610</ele>
        <time>2026-03-24T10:55:01Z</time>
      </trkpt>
      <trkpt lat="42.87569" lon="1.45268">
        <ele>1608</ele>
        <time>2026-03-24T10:55:10Z</time>
      </trkpt>
      <trkpt lat="42.8756" lon="1.45263">
        <ele>1608</ele>
        <time>2026-03-24T10:55:17Z</time>
      </trkpt>
      <trkpt lat="42.87552" lon="1.45255">
        <ele>1608</ele>
        <time>2026-03-24T10:55:25Z</time>
      </trkpt>
      <trkpt lat="42.87544" lon="1.45251">
        <ele>1608</ele>
        <time>2026-03-24T10:55:32Z</time>
      </trkpt>
      <trkpt lat="42.87535" lon="1.45246">
        <ele>1608</ele>
        <time>2026-03-24T10:55:40Z</time>
      </trkpt>
      <trkpt lat="42.87527" lon="1.45242">
        <ele>1608</ele>
        <time>2026-03-24T10:55:46Z</time>
      </trkpt>
      <trkpt lat="42.87517" lon="1.45239">
        <ele>1609</ele>
        <time>2026-03-24T10:55:54Z</time>
      </trkpt>
      <trkpt lat="42.87508" lon="1.45238">
        <ele>1610</ele>
        <time>2026-03-24T10:56:03Z</time>
      </trkpt>
      <trkpt lat="42.87498" lon="1.45238">
        <ele>1611</ele>
        <time>2026-03-24T10:56:11Z</time>
      </trkpt>
      <trkpt lat="42.87489" lon="1.45239">
        <ele>1612</ele>
        <time>2026-03-24T10:56:20Z</time>
      </trkpt>
      <trkpt lat="42.8748" lon="1.45237">
        <ele>1613</ele>
        <time>2026-03-24T10:56:29Z</time>
      </trkpt>
      <trkpt lat="42.87471" lon="1.45236">
        <ele>1614</ele>
        <time>2026-03-24T10:57:00Z</time>
      </trkpt>
      <trkpt lat="42.87463" lon="1.45241">
        <ele>1615</ele>
        <time>2026-03-24T10:57:18Z</time>
      </trkpt>
      <trkpt lat="42.87453" lon="1.45244">
        <ele>1614</ele>
        <time>2026-03-24T10:57:27Z</time>
      </trkpt>
      <trkpt lat="42.87436" lon="1.4525">
        <ele>1615</ele>
        <time>2026-03-24T10:57:44Z</time>
      </trkpt>
      <trkpt lat="42.87423" lon="1.45256">
        <ele>1615</ele>
        <time>2026-03-24T10:57:56Z</time>
      </trkpt>
      <trkpt lat="42.87415" lon="1.4526">
        <ele>1615</ele>
        <time>2026-03-24T10:58:03Z</time>
      </trkpt>
      <trkpt lat="42.87406" lon="1.45263">
        <ele>1616</ele>
        <time>2026-03-24T10:58:11Z</time>
      </trkpt>
      <trkpt lat="42.87396" lon="1.45262">
        <ele>1614</ele>
        <time>2026-03-24T10:58:19Z</time>
      </trkpt>
      <trkpt lat="42.87386" lon="1.45261">
        <ele>1614</ele>
        <time>2026-03-24T10:58:28Z</time>
      </trkpt>
      <trkpt lat="42.87368" lon="1.45263">
        <ele>1614</ele>
        <time>2026-03-24T10:59:08Z</time>
      </trkpt>
      <trkpt lat="42.87359" lon="1.45266">
        <ele>1615</ele>
        <time>2026-03-24T11:00:41Z</time>
      </trkpt>
      <trkpt lat="42.87341" lon="1.45261">
        <ele>1613</ele>
        <time>2026-03-24T11:01:05Z</time>
      </trkpt>
      <trkpt lat="42.87332" lon="1.45257">
        <ele>1611</ele>
        <time>2026-03-24T11:01:20Z</time>
      </trkpt>
      <trkpt lat="42.87315" lon="1.45248">
        <ele>1608</ele>
        <time>2026-03-24T11:01:42Z</time>
      </trkpt>
      <trkpt lat="42.87298" lon="1.4524">
        <ele>1606</ele>
        <time>2026-03-24T11:02:08Z</time>
      </trkpt>
      <trkpt lat="42.87281" lon="1.45233">
        <ele>1605</ele>
        <time>2026-03-24T11:02:35Z</time>
      </trkpt>
      <trkpt lat="42.87264" lon="1.45225">
        <ele>1603</ele>
        <time>2026-03-24T11:03:00Z</time>
      </trkpt>
      <trkpt lat="42.87248" lon="1.45213">
        <ele>1600</ele>
        <time>2026-03-24T11:03:26Z</time>
      </trkpt>
      <trkpt lat="42.87231" lon="1.45201">
        <ele>1598</ele>
        <time>2026-03-24T11:03:52Z</time>
      </trkpt>
      <trkpt lat="42.87215" lon="1.45189">
        <ele>1598</ele>
        <time>2026-03-24T11:04:19Z</time>
      </trkpt>
      <trkpt lat="42.87198" lon="1.4518">
        <ele>1598</ele>
        <time>2026-03-24T11:04:46Z</time>
      </trkpt>
      <trkpt lat="42.87184" lon="1.45166">
        <ele>1597</ele>
        <time>2026-03-24T11:05:09Z</time>
      </trkpt>
      <trkpt lat="42.87167" lon="1.45154">
        <ele>1597</ele>
        <time>2026-03-24T11:05:34Z</time>
      </trkpt>
      <trkpt lat="42.8715" lon="1.45142">
        <ele>1600</ele>
        <time>2026-03-24T11:06:00Z</time>
      </trkpt>
      <trkpt lat="42.87138" lon="1.45123">
        <ele>1599</ele>
        <time>2026-03-24T11:06:23Z</time>
      </trkpt>
      <trkpt lat="42.87128" lon="1.45101">
        <ele>1599</ele>
        <time>2026-03-24T11:07:08Z</time>
      </trkpt>
      <trkpt lat="42.87124" lon="1.4509">
        <ele>1599</ele>
        <time>2026-03-24T11:07:16Z</time>
      </trkpt>
      <trkpt lat="42.87116" lon="1.45068">
        <ele>1596</ele>
        <time>2026-03-24T11:07:33Z</time>
      </trkpt>
      <trkpt lat="42.87109" lon="1.45058">
        <ele>1593</ele>
        <time>2026-03-24T11:07:42Z</time>
      </trkpt>
      <trkpt lat="42.87101" lon="1.45051">
        <ele>1596</ele>
        <time>2026-03-24T11:08:05Z</time>
      </trkpt>
      <trkpt lat="42.87083" lon="1.45042">
        <ele>1596</ele>
        <time>2026-03-24T11:08:23Z</time>
      </trkpt>
      <trkpt lat="42.87074" lon="1.4504">
        <ele>1596</ele>
        <time>2026-03-24T11:08:31Z</time>
      </trkpt>
      <trkpt lat="42.87057" lon="1.45032">
        <ele>1597</ele>
        <time>2026-03-24T11:08:52Z</time>
      </trkpt>
      <trkpt lat="42.87041" lon="1.4502">
        <ele>1599</ele>
        <time>2026-03-24T11:09:19Z</time>
      </trkpt>
      <trkpt lat="42.87023" lon="1.45013">
        <ele>1602</ele>
        <time>2026-03-24T11:09:48Z</time>
      </trkpt>
      <trkpt lat="42.8693" lon="1.45013">
        <ele>1627</ele>
        <time>2026-03-24T11:18:14Z</time>
      </trkpt>
      <trkpt lat="42.8682" lon="1.4502">
        <ele>1662</ele>
        <time>2026-03-24T11:22:53Z</time>
      </trkpt>
      <trkpt lat="42.86802" lon="1.45022">
        <ele>1667</ele>
        <time>2026-03-24T11:23:25Z</time>
      </trkpt>
      <trkpt lat="42.86784" lon="1.45018">
        <ele>1668</ele>
        <time>2026-03-24T11:23:55Z</time>
      </trkpt>
      <trkpt lat="42.86766" lon="1.45014">
        <ele>1675</ele>
        <time>2026-03-24T11:27:53Z</time>
      </trkpt>
      <trkpt lat="42.86748" lon="1.4501">
        <ele>1678</ele>
        <time>2026-03-24T11:28:19Z</time>
      </trkpt>
      <trkpt lat="42.86736" lon="1.44992">
        <ele>1684</ele>
        <time>2026-03-24T11:28:49Z</time>
      </trkpt>
      <trkpt lat="42.86724" lon="1.44973">
        <ele>1689</ele>
        <time>2026-03-24T11:29:22Z</time>
      </trkpt>
      <trkpt lat="42.86709" lon="1.44959">
        <ele>1696</ele>
        <time>2026-03-24T11:30:27Z</time>
      </trkpt>
      <trkpt lat="42.86692" lon="1.4495">
        <ele>1700</ele>
        <time>2026-03-24T11:31:04Z</time>
      </trkpt>
      <trkpt lat="42.86676" lon="1.44939">
        <ele>1702</ele>
        <time>2026-03-24T11:31:42Z</time>
      </trkpt>
      <trkpt lat="42.86609" lon="1.4502">
        <ele>1728</ele>
        <time>2026-03-24T11:37:29Z</time>
      </trkpt>
      <trkpt lat="42.86594" lon="1.45006">
        <ele>1736</ele>
        <time>2026-03-24T11:38:11Z</time>
      </trkpt>
      <trkpt lat="42.86577" lon="1.44997">
        <ele>1740</ele>
        <time>2026-03-24T11:38:48Z</time>
      </trkpt>
      <trkpt lat="42.86573" lon="1.45021">
        <ele>1744</ele>
        <time>2026-03-24T11:39:32Z</time>
      </trkpt>
      <trkpt lat="42.86573" lon="1.45046">
        <ele>1751</ele>
        <time>2026-03-24T11:40:58Z</time>
      </trkpt>
      <trkpt lat="42.86533" lon="1.45064">
        <ele>1773</ele>
        <time>2026-03-24T11:44:08Z</time>
      </trkpt>
      <trkpt lat="42.86515" lon="1.4506">
        <ele>1778</ele>
        <time>2026-03-24T11:44:54Z</time>
      </trkpt>
      <trkpt lat="42.86499" lon="1.45062">
        <ele>1785</ele>
        <time>2026-03-24T11:45:58Z</time>
      </trkpt>
      <trkpt lat="42.8649" lon="1.45066">
        <ele>1788</ele>
        <time>2026-03-24T11:46:20Z</time>
      </trkpt>
      <trkpt lat="42.86474" lon="1.45064">
        <ele>1793</ele>
        <time>2026-03-24T11:46:58Z</time>
      </trkpt>
      <trkpt lat="42.8646" lon="1.45065">
        <ele>1797</ele>
        <time>2026-03-24T11:47:29Z</time>
      </trkpt>
      <trkpt lat="42.86442" lon="1.45069">
        <ele>1804</ele>
        <time>2026-03-24T11:48:11Z</time>
      </trkpt>
      <trkpt lat="42.86434" lon="1.45072">
        <ele>1807</ele>
        <time>2026-03-24T11:48:33Z</time>
      </trkpt>
      <trkpt lat="42.86425" lon="1.45068">
        <ele>1810</ele>
        <time>2026-03-24T11:48:52Z</time>
      </trkpt>
      <trkpt lat="42.86416" lon="1.45063">
        <ele>1813</ele>
        <time>2026-03-24T11:49:14Z</time>
      </trkpt>
      <trkpt lat="42.86401" lon="1.4506">
        <ele>1816</ele>
        <time>2026-03-24T11:49:44Z</time>
      </trkpt>
      <trkpt lat="42.86393" lon="1.45068">
        <ele>1818</ele>
        <time>2026-03-24T11:49:58Z</time>
      </trkpt>
      <trkpt lat="42.86411" lon="1.45062">
        <ele>1818</ele>
        <time>2026-03-24T13:00:27Z</time>
      </trkpt>
      <trkpt lat="42.86429" lon="1.45067">
        <ele>1810</ele>
        <time>2026-03-24T13:00:47Z</time>
      </trkpt>
      <trkpt lat="42.86439" lon="1.45067">
        <ele>1808</ele>
        <time>2026-03-24T13:01:00Z</time>
      </trkpt>
      <trkpt lat="42.86449" lon="1.45071">
        <ele>1806</ele>
        <time>2026-03-24T13:01:10Z</time>
      </trkpt>
      <trkpt lat="42.86458" lon="1.4507">
        <ele>1806</ele>
        <time>2026-03-24T13:01:20Z</time>
      </trkpt>
      <trkpt lat="42.86467" lon="1.45071">
        <ele>1802</ele>
        <time>2026-03-24T13:01:33Z</time>
      </trkpt>
      <trkpt lat="42.86476" lon="1.45072">
        <ele>1799</ele>
        <time>2026-03-24T13:01:48Z</time>
      </trkpt>
      <trkpt lat="42.86485" lon="1.45074">
        <ele>1798</ele>
        <time>2026-03-24T13:01:57Z</time>
      </trkpt>
      <trkpt lat="42.86494" lon="1.45074">
        <ele>1795</ele>
        <time>2026-03-24T13:02:10Z</time>
      </trkpt>
      <trkpt lat="42.86503" lon="1.45074">
        <ele>1792</ele>
        <time>2026-03-24T13:02:21Z</time>
      </trkpt>
      <trkpt lat="42.86512" lon="1.4507">
        <ele>1789</ele>
        <time>2026-03-24T13:02:34Z</time>
      </trkpt>
      <trkpt lat="42.86521" lon="1.45069">
        <ele>1783</ele>
        <time>2026-03-24T13:02:54Z</time>
      </trkpt>
      <trkpt lat="42.8653" lon="1.45064">
        <ele>1778</ele>
        <time>2026-03-24T13:03:19Z</time>
      </trkpt>
      <trkpt lat="42.86539" lon="1.45065">
        <ele>1775</ele>
        <time>2026-03-24T13:03:37Z</time>
      </trkpt>
      <trkpt lat="42.86548" lon="1.45068">
        <ele>1772</ele>
        <time>2026-03-24T13:04:05Z</time>
      </trkpt>
      <trkpt lat="42.86547" lon="1.45056">
        <ele>1766</ele>
        <time>2026-03-24T13:04:44Z</time>
      </trkpt>
      <trkpt lat="42.86554" lon="1.45048">
        <ele>1760</ele>
        <time>2026-03-24T13:05:14Z</time>
      </trkpt>
      <trkpt lat="42.86563" lon="1.45047">
        <ele>1760</ele>
        <time>2026-03-24T13:05:32Z</time>
      </trkpt>
      <trkpt lat="42.86567" lon="1.45036">
        <ele>1753</ele>
        <time>2026-03-24T13:06:02Z</time>
      </trkpt>
      <trkpt lat="42.86569" lon="1.45023">
        <ele>1748</ele>
        <time>2026-03-24T13:06:21Z</time>
      </trkpt>
      <trkpt lat="42.86573" lon="1.45011">
        <ele>1743</ele>
        <time>2026-03-24T13:06:39Z</time>
      </trkpt>
      <trkpt lat="42.86581" lon="1.45005">
        <ele>1739</ele>
        <time>2026-03-24T13:06:59Z</time>
      </trkpt>
      <trkpt lat="42.86591" lon="1.45003">
        <ele>1734</ele>
        <time>2026-03-24T13:07:16Z</time>
      </trkpt>
      <trkpt lat="42.86597" lon="1.44994">
        <ele>1731</ele>
        <time>2026-03-24T13:07:29Z</time>
      </trkpt>
      <trkpt lat="42.86607" lon="1.44995">
        <ele>1728</ele>
        <time>2026-03-24T13:07:41Z</time>
      </trkpt>
      <trkpt lat="42.86616" lon="1.44991">
        <ele>1727</ele>
        <time>2026-03-24T13:07:50Z</time>
      </trkpt>
      <trkpt lat="42.86625" lon="1.44987">
        <ele>1724</ele>
        <time>2026-03-24T13:08:00Z</time>
      </trkpt>
      <trkpt lat="42.86634" lon="1.44985">
        <ele>1720</ele>
        <time>2026-03-24T13:08:11Z</time>
      </trkpt>
      <trkpt lat="42.86643" lon="1.44982">
        <ele>1717</ele>
        <time>2026-03-24T13:08:21Z</time>
      </trkpt>
      <trkpt lat="42.86652" lon="1.44982">
        <ele>1715</ele>
        <time>2026-03-24T13:08:31Z</time>
      </trkpt>
      <trkpt lat="42.8666" lon="1.44974">
        <ele>1708</ele>
        <time>2026-03-24T13:08:42Z</time>
      </trkpt>
      <trkpt lat="42.86669" lon="1.44975">
        <ele>1707</ele>
        <time>2026-03-24T13:08:53Z</time>
      </trkpt>
      <trkpt lat="42.86678" lon="1.44973">
        <ele>1705</ele>
        <time>2026-03-24T13:09:05Z</time>
      </trkpt>
      <trkpt lat="42.86688" lon="1.44972">
        <ele>1700</ele>
        <time>2026-03-24T13:09:15Z</time>
      </trkpt>
      <trkpt lat="42.86697" lon="1.44972">
        <ele>1698</ele>
        <time>2026-03-24T13:09:25Z</time>
      </trkpt>
      <trkpt lat="42.86706" lon="1.44971">
        <ele>1697</ele>
        <time>2026-03-24T13:09:36Z</time>
      </trkpt>
      <trkpt lat="42.86715" lon="1.44973">
        <ele>1695</ele>
        <time>2026-03-24T13:09:46Z</time>
      </trkpt>
      <trkpt lat="42.86724" lon="1.44974">
        <ele>1695</ele>
        <time>2026-03-24T13:09:57Z</time>
      </trkpt>
      <trkpt lat="42.86733" lon="1.44972">
        <ele>1692</ele>
        <time>2026-03-24T13:10:07Z</time>
      </trkpt>
      <trkpt lat="42.86742" lon="1.44968">
        <ele>1688</ele>
        <time>2026-03-24T13:10:19Z</time>
      </trkpt>
      <trkpt lat="42.86749" lon="1.44977">
        <ele>1686</ele>
        <time>2026-03-24T13:10:30Z</time>
      </trkpt>
      <trkpt lat="42.86758" lon="1.44982">
        <ele>1687</ele>
        <time>2026-03-24T13:10:39Z</time>
      </trkpt>
      <trkpt lat="42.86768" lon="1.44982">
        <ele>1691</ele>
        <time>2026-03-24T13:10:44Z</time>
      </trkpt>
      <trkpt lat="42.86777" lon="1.44985">
        <ele>1691</ele>
        <time>2026-03-24T13:10:51Z</time>
      </trkpt>
      <trkpt lat="42.86785" lon="1.44992">
        <ele>1691</ele>
        <time>2026-03-24T13:11:03Z</time>
      </trkpt>
      <trkpt lat="42.86794" lon="1.44992">
        <ele>1689</ele>
        <time>2026-03-24T13:11:15Z</time>
      </trkpt>
      <trkpt lat="42.86802" lon="1.44988">
        <ele>1684</ele>
        <time>2026-03-24T13:11:27Z</time>
      </trkpt>
      <trkpt lat="42.86812" lon="1.44987">
        <ele>1682</ele>
        <time>2026-03-24T13:11:37Z</time>
      </trkpt>
      <trkpt lat="42.86821" lon="1.44985">
        <ele>1670</ele>
        <time>2026-03-24T13:13:04Z</time>
      </trkpt>
      <trkpt lat="42.8683" lon="1.44982">
        <ele>1667</ele>
        <time>2026-03-24T13:13:15Z</time>
      </trkpt>
      <trkpt lat="42.86839" lon="1.44978">
        <ele>1663</ele>
        <time>2026-03-24T13:13:27Z</time>
      </trkpt>
      <trkpt lat="42.86854" lon="1.44976">
        <ele>1657</ele>
        <time>2026-03-24T13:14:08Z</time>
      </trkpt>
      <trkpt lat="42.86862" lon="1.44969">
        <ele>1655</ele>
        <time>2026-03-24T13:14:17Z</time>
      </trkpt>
      <trkpt lat="42.86879" lon="1.4496">
        <ele>1650</ele>
        <time>2026-03-24T13:14:32Z</time>
      </trkpt>
      <trkpt lat="42.86896" lon="1.44952">
        <ele>1646</ele>
        <time>2026-03-24T13:14:47Z</time>
      </trkpt>
      <trkpt lat="42.86912" lon="1.44942">
        <ele>1643</ele>
        <time>2026-03-24T13:15:02Z</time>
      </trkpt>
      <trkpt lat="42.8693" lon="1.44933">
        <ele>1639</ele>
        <time>2026-03-24T13:15:19Z</time>
      </trkpt>
      <trkpt lat="42.86946" lon="1.44943">
        <ele>1636</ele>
        <time>2026-03-24T13:15:39Z</time>
      </trkpt>
      <trkpt lat="42.86963" lon="1.44953">
        <ele>1628</ele>
        <time>2026-03-24T13:16:27Z</time>
      </trkpt>
      <trkpt lat="42.86979" lon="1.44965">
        <ele>1623</ele>
        <time>2026-03-24T13:16:52Z</time>
      </trkpt>
      <trkpt lat="42.86994" lon="1.44981">
        <ele>1616</ele>
        <time>2026-03-24T13:17:15Z</time>
      </trkpt>
      <trkpt lat="42.87009" lon="1.44995">
        <ele>1610</ele>
        <time>2026-03-24T13:17:33Z</time>
      </trkpt>
      <trkpt lat="42.87024" lon="1.4501">
        <ele>1604</ele>
        <time>2026-03-24T13:17:54Z</time>
      </trkpt>
      <trkpt lat="42.87043" lon="1.45014">
        <ele>1600</ele>
        <time>2026-03-24T13:18:17Z</time>
      </trkpt>
      <trkpt lat="42.87058" lon="1.45028">
        <ele>1598</ele>
        <time>2026-03-24T13:18:35Z</time>
      </trkpt>
      <trkpt lat="42.87073" lon="1.45042">
        <ele>1598</ele>
        <time>2026-03-24T13:18:54Z</time>
      </trkpt>
      <trkpt lat="42.87082" lon="1.45047">
        <ele>1598</ele>
        <time>2026-03-24T13:19:06Z</time>
      </trkpt>
      <trkpt lat="42.87099" lon="1.45054">
        <ele>1591</ele>
        <time>2026-03-24T13:21:46Z</time>
      </trkpt>
      <trkpt lat="42.8713" lon="1.4508">
        <ele>1594</ele>
        <time>2026-03-24T13:22:54Z</time>
      </trkpt>
      <trkpt lat="42.87143" lon="1.45099">
        <ele>1595</ele>
        <time>2026-03-24T13:23:21Z</time>
      </trkpt>
      <trkpt lat="42.87156" lon="1.45117">
        <ele>1596</ele>
        <time>2026-03-24T13:23:43Z</time>
      </trkpt>
      <trkpt lat="42.87169" lon="1.45134">
        <ele>1597</ele>
        <time>2026-03-24T13:24:08Z</time>
      </trkpt>
      <trkpt lat="42.87184" lon="1.45151">
        <ele>1596</ele>
        <time>2026-03-24T13:24:30Z</time>
      </trkpt>
      <trkpt lat="42.87198" lon="1.45168">
        <ele>1598</ele>
        <time>2026-03-24T13:24:51Z</time>
      </trkpt>
      <trkpt lat="42.8721" lon="1.45186">
        <ele>1598</ele>
        <time>2026-03-24T13:25:10Z</time>
      </trkpt>
      <trkpt lat="42.87226" lon="1.452">
        <ele>1598</ele>
        <time>2026-03-24T13:25:29Z</time>
      </trkpt>
      <trkpt lat="42.8724" lon="1.4521">
        <ele>1596</ele>
        <time>2026-03-24T13:25:49Z</time>
      </trkpt>
      <trkpt lat="42.87247" lon="1.45218">
        <ele>1598</ele>
        <time>2026-03-24T13:26:00Z</time>
      </trkpt>
      <trkpt lat="42.87281" lon="1.45238">
        <ele>1599</ele>
        <time>2026-03-24T13:26:49Z</time>
      </trkpt>
      <trkpt lat="42.87297" lon="1.45248">
        <ele>1604</ele>
        <time>2026-03-24T13:27:12Z</time>
      </trkpt>
      <trkpt lat="42.87315" lon="1.45256">
        <ele>1604</ele>
        <time>2026-03-24T13:27:34Z</time>
      </trkpt>
      <trkpt lat="42.87333" lon="1.4526">
        <ele>1608</ele>
        <time>2026-03-24T13:27:56Z</time>
      </trkpt>
      <trkpt lat="42.87352" lon="1.45262">
        <ele>1609</ele>
        <time>2026-03-24T13:28:16Z</time>
      </trkpt>
      <trkpt lat="42.8737" lon="1.45264">
        <ele>1607</ele>
        <time>2026-03-24T13:28:37Z</time>
      </trkpt>
      <trkpt lat="42.87388" lon="1.45266">
        <ele>1609</ele>
        <time>2026-03-24T13:28:58Z</time>
      </trkpt>
      <trkpt lat="42.87406" lon="1.45271">
        <ele>1611</ele>
        <time>2026-03-24T13:29:20Z</time>
      </trkpt>
      <trkpt lat="42.87424" lon="1.45268">
        <ele>1613</ele>
        <time>2026-03-24T13:29:41Z</time>
      </trkpt>
      <trkpt lat="42.87442" lon="1.45263">
        <ele>1613</ele>
        <time>2026-03-24T13:30:00Z</time>
      </trkpt>
      <trkpt lat="42.87459" lon="1.45261">
        <ele>1615</ele>
        <time>2026-03-24T13:30:20Z</time>
      </trkpt>
      <trkpt lat="42.87468" lon="1.4526">
        <ele>1614</ele>
        <time>2026-03-24T13:30:29Z</time>
      </trkpt>
      <trkpt lat="42.87478" lon="1.45262">
        <ele>1618</ele>
        <time>2026-03-24T13:30:40Z</time>
      </trkpt>
      <trkpt lat="42.87496" lon="1.45266">
        <ele>1618</ele>
        <time>2026-03-24T13:31:00Z</time>
      </trkpt>
      <trkpt lat="42.87509" lon="1.45267">
        <ele>1615</ele>
        <time>2026-03-24T13:31:15Z</time>
      </trkpt>
      <trkpt lat="42.87518" lon="1.45266">
        <ele>1612</ele>
        <time>2026-03-24T13:31:25Z</time>
      </trkpt>
      <trkpt lat="42.87527" lon="1.45265">
        <ele>1614</ele>
        <time>2026-03-24T13:31:31Z</time>
      </trkpt>
      <trkpt lat="42.87544" lon="1.45271">
        <ele>1615</ele>
        <time>2026-03-24T13:31:49Z</time>
      </trkpt>
      <trkpt lat="42.87562" lon="1.45275">
        <ele>1616</ele>
        <time>2026-03-24T13:32:07Z</time>
      </trkpt>
      <trkpt lat="42.8758" lon="1.45273">
        <ele>1614</ele>
        <time>2026-03-24T13:32:29Z</time>
      </trkpt>
      <trkpt lat="42.87596" lon="1.45287">
        <ele>1613</ele>
        <time>2026-03-24T13:32:55Z</time>
      </trkpt>
      <trkpt lat="42.87613" lon="1.45295">
        <ele>1611</ele>
        <time>2026-03-24T13:33:13Z</time>
      </trkpt>
      <trkpt lat="42.87648" lon="1.45307">
        <ele>1611</ele>
        <time>2026-03-24T13:33:54Z</time>
      </trkpt>
      <trkpt lat="42.87658" lon="1.45311">
        <ele>1610</ele>
        <time>2026-03-24T13:34:02Z</time>
      </trkpt>
      <trkpt lat="42.87668" lon="1.45311">
        <ele>1610</ele>
        <time>2026-03-24T13:34:10Z</time>
      </trkpt>
      <trkpt lat="42.87677" lon="1.45311">
        <ele>1612</ele>
        <time>2026-03-24T13:34:18Z</time>
      </trkpt>
      <trkpt lat="42.87686" lon="1.45309">
        <ele>1611</ele>
        <time>2026-03-24T13:34:27Z</time>
      </trkpt>
      <trkpt lat="42.87704" lon="1.45306">
        <ele>1610</ele>
        <time>2026-03-24T13:34:44Z</time>
      </trkpt>
      <trkpt lat="42.87722" lon="1.45302">
        <ele>1606</ele>
        <time>2026-03-24T13:35:01Z</time>
      </trkpt>
      <trkpt lat="42.87731" lon="1.45297">
        <ele>1603</ele>
        <time>2026-03-24T13:35:14Z</time>
      </trkpt>
      <trkpt lat="42.87748" lon="1.45305">
        <ele>1603</ele>
        <time>2026-03-24T13:42:04Z</time>
      </trkpt>
      <trkpt lat="42.87766" lon="1.45305">
        <ele>1601</ele>
        <time>2026-03-24T13:42:33Z</time>
      </trkpt>
      <trkpt lat="42.87783" lon="1.45314">
        <ele>1603</ele>
        <time>2026-03-24T13:42:54Z</time>
      </trkpt>
      <trkpt lat="42.87801" lon="1.45321">
        <ele>1601</ele>
        <time>2026-03-24T13:43:17Z</time>
      </trkpt>
      <trkpt lat="42.87818" lon="1.4533">
        <ele>1604</ele>
        <time>2026-03-24T13:43:36Z</time>
      </trkpt>
      <trkpt lat="42.87836" lon="1.45338">
        <ele>1605</ele>
        <time>2026-03-24T13:43:57Z</time>
      </trkpt>
      <trkpt lat="42.87853" lon="1.45347">
        <ele>1606</ele>
        <time>2026-03-24T13:44:19Z</time>
      </trkpt>
      <trkpt lat="42.87872" lon="1.45351">
        <ele>1606</ele>
        <time>2026-03-24T13:44:43Z</time>
      </trkpt>
      <trkpt lat="42.87889" lon="1.45359">
        <ele>1609</ele>
        <time>2026-03-24T13:45:10Z</time>
      </trkpt>
      <trkpt lat="42.87921" lon="1.45381">
        <ele>1616</ele>
        <time>2026-03-24T13:45:56Z</time>
      </trkpt>
      <trkpt lat="42.87952" lon="1.4541">
        <ele>1622</ele>
        <time>2026-03-24T13:46:43Z</time>
      </trkpt>
      <trkpt lat="42.87969" lon="1.45419">
        <ele>1621</ele>
        <time>2026-03-24T13:47:10Z</time>
      </trkpt>
      <trkpt lat="42.87986" lon="1.45414">
        <ele>1617</ele>
        <time>2026-03-24T13:47:29Z</time>
      </trkpt>
      <trkpt lat="42.88023" lon="1.45401">
        <ele>1611</ele>
        <time>2026-03-24T13:48:37Z</time>
      </trkpt>
      <trkpt lat="42.8803" lon="1.45393">
        <ele>1609</ele>
        <time>2026-03-24T13:48:48Z</time>
      </trkpt>
      <trkpt lat="42.88046" lon="1.45379">
        <ele>1609</ele>
        <time>2026-03-24T13:49:25Z</time>
      </trkpt>
      <trkpt lat="42.88054" lon="1.45372">
        <ele>1606</ele>
        <time>2026-03-24T13:49:38Z</time>
      </trkpt>
      <trkpt lat="42.88067" lon="1.45357">
        <ele>1606</ele>
        <time>2026-03-24T13:50:16Z</time>
      </trkpt>
      <trkpt lat="42.88077" lon="1.45343">
        <ele>1601</ele>
        <time>2026-03-24T13:50:28Z</time>
      </trkpt>
      <trkpt lat="42.88092" lon="1.4533">
        <ele>1597</ele>
        <time>2026-03-24T13:50:54Z</time>
      </trkpt>
      <trkpt lat="42.88101" lon="1.45325">
        <ele>1596</ele>
        <time>2026-03-24T13:51:04Z</time>
      </trkpt>
      <trkpt lat="42.8811" lon="1.45322">
        <ele>1595</ele>
        <time>2026-03-24T13:51:13Z</time>
      </trkpt>
      <trkpt lat="42.8812" lon="1.45321">
        <ele>1593</ele>
        <time>2026-03-24T13:51:22Z</time>
      </trkpt>
      <trkpt lat="42.88129" lon="1.45319">
        <ele>1595</ele>
        <time>2026-03-24T13:51:30Z</time>
      </trkpt>
      <trkpt lat="42.88139" lon="1.45316">
        <ele>1594</ele>
        <time>2026-03-24T13:51:39Z</time>
      </trkpt>
      <trkpt lat="42.88148" lon="1.45313">
        <ele>1591</ele>
        <time>2026-03-24T13:51:48Z</time>
      </trkpt>
      <trkpt lat="42.88157" lon="1.45309">
        <ele>1589</ele>
        <time>2026-03-24T13:51:56Z</time>
      </trkpt>
      <trkpt lat="42.88166" lon="1.45309">
        <ele>1588</ele>
        <time>2026-03-24T13:52:03Z</time>
      </trkpt>
      <trkpt lat="42.88175" lon="1.45307">
        <ele>1585</ele>
        <time>2026-03-24T13:52:12Z</time>
      </trkpt>
      <trkpt lat="42.88185" lon="1.45304">
        <ele>1584</ele>
        <time>2026-03-24T13:52:21Z</time>
      </trkpt>
      <trkpt lat="42.88203" lon="1.45307">
        <ele>1587</ele>
        <time>2026-03-24T13:53:06Z</time>
      </trkpt>
      <trkpt lat="42.88221" lon="1.45308">
        <ele>1587</ele>
        <time>2026-03-24T13:53:23Z</time>
      </trkpt>
      <trkpt lat="42.88239" lon="1.45299">
        <ele>1585</ele>
        <time>2026-03-24T13:53:42Z</time>
      </trkpt>
      <trkpt lat="42.88257" lon="1.45299">
        <ele>1586</ele>
        <time>2026-03-24T13:54:03Z</time>
      </trkpt>
      <trkpt lat="42.88276" lon="1.45296">
        <ele>1587</ele>
        <time>2026-03-24T13:54:27Z</time>
      </trkpt>
      <trkpt lat="42.88289" lon="1.45278">
        <ele>1582</ele>
        <time>2026-03-24T13:55:05Z</time>
      </trkpt>
      <trkpt lat="42.88299" lon="1.45258">
        <ele>1580</ele>
        <time>2026-03-24T13:55:28Z</time>
      </trkpt>
      <trkpt lat="42.88305" lon="1.45235">
        <ele>1580</ele>
        <time>2026-03-24T14:00:15Z</time>
      </trkpt>
      <trkpt lat="42.88312" lon="1.45212">
        <ele>1576</ele>
        <time>2026-03-24T14:00:33Z</time>
      </trkpt>
      <trkpt lat="42.88319" lon="1.45191">
        <ele>1573</ele>
        <time>2026-03-24T14:00:49Z</time>
      </trkpt>
      <trkpt lat="42.88323" lon="1.4518">
        <ele>1572</ele>
        <time>2026-03-24T14:00:58Z</time>
      </trkpt>
      <trkpt lat="42.88327" lon="1.45169">
        <ele>1572</ele>
        <time>2026-03-24T14:01:07Z</time>
      </trkpt>
      <trkpt lat="42.88333" lon="1.45157">
        <ele>1571</ele>
        <time>2026-03-24T14:01:17Z</time>
      </trkpt>
      <trkpt lat="42.88337" lon="1.45147">
        <ele>1570</ele>
        <time>2026-03-24T14:01:26Z</time>
      </trkpt>
      <trkpt lat="42.88343" lon="1.45137">
        <ele>1570</ele>
        <time>2026-03-24T14:01:36Z</time>
      </trkpt>
      <trkpt lat="42.88348" lon="1.45126">
        <ele>1571</ele>
        <time>2026-03-24T14:01:46Z</time>
      </trkpt>
      <trkpt lat="42.88351" lon="1.45114">
        <ele>1571</ele>
        <time>2026-03-24T14:01:58Z</time>
      </trkpt>
      <trkpt lat="42.8836" lon="1.45092">
        <ele>1571</ele>
        <time>2026-03-24T14:02:21Z</time>
      </trkpt>
      <trkpt lat="42.88366" lon="1.4508">
        <ele>1573</ele>
        <time>2026-03-24T14:02:34Z</time>
      </trkpt>
      <trkpt lat="42.8837" lon="1.45069">
        <ele>1573</ele>
        <time>2026-03-24T14:02:45Z</time>
      </trkpt>
      <trkpt lat="42.8838" lon="1.45048">
        <ele>1572</ele>
        <time>2026-03-24T14:03:03Z</time>
      </trkpt>
      <trkpt lat="42.88384" lon="1.45036">
        <ele>1571</ele>
        <time>2026-03-24T14:03:13Z</time>
      </trkpt>
      <trkpt lat="42.88394" lon="1.45015">
        <ele>1569</ele>
        <time>2026-03-24T14:03:29Z</time>
      </trkpt>
      <trkpt lat="42.88399" lon="1.45004">
        <ele>1569</ele>
        <time>2026-03-24T14:03:38Z</time>
      </trkpt>
      <trkpt lat="42.88404" lon="1.44993">
        <ele>1569</ele>
        <time>2026-03-24T14:03:47Z</time>
      </trkpt>
      <trkpt lat="42.8841" lon="1.44983">
        <ele>1571</ele>
        <time>2026-03-24T14:03:57Z</time>
      </trkpt>
      <trkpt lat="42.88423" lon="1.44966">
        <ele>1571</ele>
        <time>2026-03-24T14:04:14Z</time>
      </trkpt>
      <trkpt lat="42.88429" lon="1.44956">
        <ele>1570</ele>
        <time>2026-03-24T14:04:26Z</time>
      </trkpt>
      <trkpt lat="42.88442" lon="1.44937">
        <ele>1573</ele>
        <time>2026-03-24T14:04:53Z</time>
      </trkpt>
      <trkpt lat="42.88454" lon="1.4492">
        <ele>1576</ele>
        <time>2026-03-24T14:05:19Z</time>
      </trkpt>
      <trkpt lat="42.88519" lon="1.44872">
        <ele>1590</ele>
        <time>2026-03-24T14:07:31Z</time>
      </trkpt>
      <trkpt lat="42.88535" lon="1.44862">
        <ele>1594</ele>
        <time>2026-03-24T14:07:55Z</time>
      </trkpt>
      <trkpt lat="42.8855" lon="1.44848">
        <ele>1594</ele>
        <time>2026-03-24T14:08:21Z</time>
      </trkpt>
      <trkpt lat="42.88566" lon="1.44836">
        <ele>1596</ele>
        <time>2026-03-24T14:08:54Z</time>
      </trkpt>
      <trkpt lat="42.88597" lon="1.4481">
        <ele>1604</ele>
        <time>2026-03-24T14:10:06Z</time>
      </trkpt>
      <trkpt lat="42.88673" lon="1.44727">
        <ele>1623</ele>
        <time>2026-03-24T14:14:17Z</time>
      </trkpt>
      <trkpt lat="42.88693" lon="1.44684">
        <ele>1634</ele>
        <time>2026-03-24T14:15:22Z</time>
      </trkpt>
      <trkpt lat="42.88744" lon="1.44614">
        <ele>1647</ele>
        <time>2026-03-24T14:18:06Z</time>
      </trkpt>
      <trkpt lat="42.88759" lon="1.44601">
        <ele>1654</ele>
        <time>2026-03-24T14:18:38Z</time>
      </trkpt>
      <trkpt lat="42.88788" lon="1.44592">
        <ele>1657</ele>
        <time>2026-03-24T14:31:44Z</time>
      </trkpt>
      <trkpt lat="42.88803" lon="1.44605">
        <ele>1650</ele>
        <time>2026-03-24T14:32:09Z</time>
      </trkpt>
      <trkpt lat="42.88821" lon="1.44612">
        <ele>1645</ele>
        <time>2026-03-24T14:32:31Z</time>
      </trkpt>
      <trkpt lat="42.88849" lon="1.44638">
        <ele>1633</ele>
        <time>2026-03-24T14:33:38Z</time>
      </trkpt>
      <trkpt lat="42.88853" lon="1.44649">
        <ele>1631</ele>
        <time>2026-03-24T14:33:49Z</time>
      </trkpt>
      <trkpt lat="42.88862" lon="1.44656">
        <ele>1627</ele>
        <time>2026-03-24T14:34:02Z</time>
      </trkpt>
      <trkpt lat="42.8887" lon="1.44662">
        <ele>1623</ele>
        <time>2026-03-24T14:34:16Z</time>
      </trkpt>
      <trkpt lat="42.88876" lon="1.44671">
        <ele>1618</ele>
        <time>2026-03-24T14:34:28Z</time>
      </trkpt>
      <trkpt lat="42.88881" lon="1.44683">
        <ele>1614</ele>
        <time>2026-03-24T14:34:38Z</time>
      </trkpt>
      <trkpt lat="42.88886" lon="1.44693">
        <ele>1612</ele>
        <time>2026-03-24T14:34:49Z</time>
      </trkpt>
      <trkpt lat="42.8889" lon="1.44704">
        <ele>1611</ele>
        <time>2026-03-24T14:35:02Z</time>
      </trkpt>
      <trkpt lat="42.88898" lon="1.44711">
        <ele>1608</ele>
        <time>2026-03-24T14:35:15Z</time>
      </trkpt>
      <trkpt lat="42.88899" lon="1.44724">
        <ele>1604</ele>
        <time>2026-03-24T14:35:27Z</time>
      </trkpt>
      <trkpt lat="42.88906" lon="1.44733">
        <ele>1601</ele>
        <time>2026-03-24T14:35:41Z</time>
      </trkpt>
      <trkpt lat="42.88907" lon="1.44745">
        <ele>1597</ele>
        <time>2026-03-24T14:35:56Z</time>
      </trkpt>
      <trkpt lat="42.88911" lon="1.44757">
        <ele>1593</ele>
        <time>2026-03-24T14:36:11Z</time>
      </trkpt>
      <trkpt lat="42.88915" lon="1.44768">
        <ele>1591</ele>
        <time>2026-03-24T14:36:25Z</time>
      </trkpt>
      <trkpt lat="42.88918" lon="1.4478">
        <ele>1588</ele>
        <time>2026-03-24T14:36:39Z</time>
      </trkpt>
      <trkpt lat="42.88917" lon="1.44792">
        <ele>1585</ele>
        <time>2026-03-24T14:36:55Z</time>
      </trkpt>
      <trkpt lat="42.88921" lon="1.44803">
        <ele>1584</ele>
        <time>2026-03-24T14:37:07Z</time>
      </trkpt>
      <trkpt lat="42.88922" lon="1.44815">
        <ele>1581</ele>
        <time>2026-03-24T14:37:18Z</time>
      </trkpt>
      <trkpt lat="42.88924" lon="1.44828">
        <ele>1580</ele>
        <time>2026-03-24T14:37:28Z</time>
      </trkpt>
      <trkpt lat="42.88928" lon="1.44839">
        <ele>1577</ele>
        <time>2026-03-24T14:37:39Z</time>
      </trkpt>
      <trkpt lat="42.88932" lon="1.44851">
        <ele>1575</ele>
        <time>2026-03-24T14:37:51Z</time>
      </trkpt>
      <trkpt lat="42.88934" lon="1.44863">
        <ele>1572</ele>
        <time>2026-03-24T14:38:02Z</time>
      </trkpt>
      <trkpt lat="42.8894" lon="1.44872">
        <ele>1570</ele>
        <time>2026-03-24T14:38:14Z</time>
      </trkpt>
      <trkpt lat="42.88942" lon="1.44884">
        <ele>1568</ele>
        <time>2026-03-24T14:38:39Z</time>
      </trkpt>
      <trkpt lat="42.88946" lon="1.44896">
        <ele>1565</ele>
        <time>2026-03-24T14:38:50Z</time>
      </trkpt>
      <trkpt lat="42.88957" lon="1.4491">
        <ele>1560</ele>
        <time>2026-03-24T14:39:05Z</time>
      </trkpt>
      <trkpt lat="42.88964" lon="1.44919">
        <ele>1554</ele>
        <time>2026-03-24T14:39:15Z</time>
      </trkpt>
      <trkpt lat="42.8897" lon="1.44929">
        <ele>1552</ele>
        <time>2026-03-24T14:39:25Z</time>
      </trkpt>
      <trkpt lat="42.88976" lon="1.44952">
        <ele>1550</ele>
        <time>2026-03-24T14:39:43Z</time>
      </trkpt>
      <trkpt lat="42.88983" lon="1.44975">
        <ele>1545</ele>
        <time>2026-03-24T14:40:08Z</time>
      </trkpt>
      <trkpt lat="42.8899" lon="1.44998">
        <ele>1542</ele>
        <time>2026-03-24T14:40:33Z</time>
      </trkpt>
      <trkpt lat="42.88993" lon="1.4501">
        <ele>1542</ele>
        <time>2026-03-24T14:40:43Z</time>
      </trkpt>
      <trkpt lat="42.88996" lon="1.45022">
        <ele>1541</ele>
        <time>2026-03-24T14:40:54Z</time>
      </trkpt>
      <trkpt lat="42.89009" lon="1.45039">
        <ele>1535</ele>
        <time>2026-03-24T14:41:52Z</time>
      </trkpt>
      <trkpt lat="42.89012" lon="1.45055">
        <ele>1535</ele>
        <time>2026-03-24T14:42:05Z</time>
      </trkpt>
      <trkpt lat="42.89026" lon="1.45072">
        <ele>1530</ele>
        <time>2026-03-24T14:42:35Z</time>
      </trkpt>
      <trkpt lat="42.89059" lon="1.45093">
        <ele>1518</ele>
        <time>2026-03-24T14:43:55Z</time>
      </trkpt>
      <trkpt lat="42.89075" lon="1.45104">
        <ele>1510</ele>
        <time>2026-03-24T14:44:40Z</time>
      </trkpt>
      <trkpt lat="42.89093" lon="1.45106">
        <ele>1503</ele>
        <time>2026-03-24T14:45:15Z</time>
      </trkpt>
      <trkpt lat="42.89111" lon="1.45111">
        <ele>1495</ele>
        <time>2026-03-24T14:45:48Z</time>
      </trkpt>
      <trkpt lat="42.89141" lon="1.45122">
        <ele>1479</ele>
        <time>2026-03-24T14:46:55Z</time>
      </trkpt>
      <trkpt lat="42.89148" lon="1.45114">
        <ele>1475</ele>
        <time>2026-03-24T14:47:16Z</time>
      </trkpt>
      <trkpt lat="42.89166" lon="1.45112">
        <ele>1469</ele>
        <time>2026-03-24T14:47:44Z</time>
      </trkpt>
      <trkpt lat="42.89183" lon="1.45119">
        <ele>1460</ele>
        <time>2026-03-24T14:48:20Z</time>
      </trkpt>
      <trkpt lat="42.89201" lon="1.45124">
        <ele>1452</ele>
        <time>2026-03-24T14:49:22Z</time>
      </trkpt>
      <trkpt lat="42.89219" lon="1.45128">
        <ele>1445</ele>
        <time>2026-03-24T14:50:19Z</time>
      </trkpt>
      <trkpt lat="42.89236" lon="1.45119">
        <ele>1438</ele>
        <time>2026-03-24T14:51:05Z</time>
      </trkpt>
      <trkpt lat="42.89246" lon="1.4511">
        <ele>1434</ele>
        <time>2026-03-24T14:51:27Z</time>
      </trkpt>
      <trkpt lat="42.89254" lon="1.45106">
        <ele>1431</ele>
        <time>2026-03-24T14:51:37Z</time>
      </trkpt>
      <trkpt lat="42.89262" lon="1.45099">
        <ele>1429</ele>
        <time>2026-03-24T14:51:47Z</time>
      </trkpt>
      <trkpt lat="42.89271" lon="1.45103">
        <ele>1426</ele>
        <time>2026-03-24T14:52:05Z</time>
      </trkpt>
      <trkpt lat="42.8928" lon="1.45101">
        <ele>1421</ele>
        <time>2026-03-24T14:52:16Z</time>
      </trkpt>
      <trkpt lat="42.89289" lon="1.451">
        <ele>1416</ele>
        <time>2026-03-24T14:52:28Z</time>
      </trkpt>
      <trkpt lat="42.89298" lon="1.45103">
        <ele>1416</ele>
        <time>2026-03-24T14:52:39Z</time>
      </trkpt>
      <trkpt lat="42.89315" lon="1.45102">
        <ele>1412</ele>
        <time>2026-03-24T14:52:54Z</time>
      </trkpt>
      <trkpt lat="42.89324" lon="1.451">
        <ele>1409</ele>
        <time>2026-03-24T14:53:02Z</time>
      </trkpt>
      <trkpt lat="42.89333" lon="1.45099">
        <ele>1408</ele>
        <time>2026-03-24T14:53:11Z</time>
      </trkpt>
      <trkpt lat="42.89343" lon="1.45098">
        <ele>1404</ele>
        <time>2026-03-24T14:53:28Z</time>
      </trkpt>
      <trkpt lat="42.89352" lon="1.45098">
        <ele>1402</ele>
        <time>2026-03-24T14:53:38Z</time>
      </trkpt>
      <trkpt lat="42.89361" lon="1.45096">
        <ele>1401</ele>
        <time>2026-03-24T14:53:52Z</time>
      </trkpt>
      <trkpt lat="42.89371" lon="1.45096">
        <ele>1400</ele>
        <time>2026-03-24T14:54:00Z</time>
      </trkpt>
      <trkpt lat="42.8938" lon="1.45097">
        <ele>1400</ele>
        <time>2026-03-24T14:54:09Z</time>
      </trkpt>
      <trkpt lat="42.89388" lon="1.45093">
        <ele>1401</ele>
        <time>2026-03-24T14:54:17Z</time>
      </trkpt>
      <trkpt lat="42.89397" lon="1.4509">
        <ele>1402</ele>
        <time>2026-03-24T14:54:25Z</time>
      </trkpt>
      <trkpt lat="42.89406" lon="1.45088">
        <ele>1405</ele>
        <time>2026-03-24T14:54:34Z</time>
      </trkpt>
      <trkpt lat="42.89415" lon="1.4509">
        <ele>1409</ele>
        <time>2026-03-24T14:54:47Z</time>
      </trkpt>
      <trkpt lat="42.89424" lon="1.45091">
        <ele>1408</ele>
        <time>2026-03-24T14:54:54Z</time>
      </trkpt>
      <trkpt lat="42.89434" lon="1.4509">
        <ele>1405</ele>
        <time>2026-03-24T14:55:02Z</time>
      </trkpt>
      <trkpt lat="42.89443" lon="1.45087">
        <ele>1404</ele>
        <time>2026-03-24T14:55:10Z</time>
      </trkpt>
      <trkpt lat="42.89452" lon="1.45089">
        <ele>1404</ele>
        <time>2026-03-24T14:55:18Z</time>
      </trkpt>
      <trkpt lat="42.89462" lon="1.4509">
        <ele>1402</ele>
        <time>2026-03-24T14:55:27Z</time>
      </trkpt>
      <trkpt lat="42.89471" lon="1.45091">
        <ele>1402</ele>
        <time>2026-03-24T14:55:35Z</time>
      </trkpt>
      <trkpt lat="42.8948" lon="1.45089">
        <ele>1400</ele>
        <time>2026-03-24T14:55:44Z</time>
      </trkpt>
      <trkpt lat="42.89488" lon="1.45093">
        <ele>1397</ele>
        <time>2026-03-24T14:55:53Z</time>
      </trkpt>
      <trkpt lat="42.89497" lon="1.45099">
        <ele>1396</ele>
        <time>2026-03-24T14:56:04Z</time>
      </trkpt>
      <trkpt lat="42.89502" lon="1.4511">
        <ele>1397</ele>
        <time>2026-03-24T14:56:11Z</time>
      </trkpt>
      <trkpt lat="42.89505" lon="1.45122">
        <ele>1394</ele>
        <time>2026-03-24T14:56:24Z</time>
      </trkpt>
      <trkpt lat="42.89514" lon="1.45124">
        <ele>1395</ele>
        <time>2026-03-24T14:56:33Z</time>
      </trkpt>
      <trkpt lat="42.89522" lon="1.45115">
        <ele>1396</ele>
        <time>2026-03-24T14:56:43Z</time>
      </trkpt>
      <trkpt lat="42.89521" lon="1.45095">
        <ele>1384</ele>
        <time>2026-03-24T15:00:23Z</time>
      </trkpt>
      <trkpt lat="42.89525" lon="1.4512">
        <ele>1383</ele>
        <time>2026-03-24T15:01:06Z</time>
      </trkpt>
      <trkpt lat="42.89529" lon="1.45132">
        <ele>1377</ele>
        <time>2026-03-24T15:01:21Z</time>
      </trkpt>
      <trkpt lat="42.8953" lon="1.45145">
        <ele>1374</ele>
        <time>2026-03-24T15:01:33Z</time>
      </trkpt>
      <trkpt lat="42.89534" lon="1.45156">
        <ele>1373</ele>
        <time>2026-03-24T15:01:43Z</time>
      </trkpt>
      <trkpt lat="42.89541" lon="1.45166">
        <ele>1369</ele>
        <time>2026-03-24T15:01:54Z</time>
      </trkpt>
      <trkpt lat="42.89548" lon="1.45174">
        <ele>1364</ele>
        <time>2026-03-24T15:02:03Z</time>
      </trkpt>
      <trkpt lat="42.89558" lon="1.45176">
        <ele>1361</ele>
        <time>2026-03-24T15:02:13Z</time>
      </trkpt>
      <trkpt lat="42.89563" lon="1.45186">
        <ele>1358</ele>
        <time>2026-03-24T15:02:22Z</time>
      </trkpt>
      <trkpt lat="42.89573" lon="1.45185">
        <ele>1355</ele>
        <time>2026-03-24T15:02:31Z</time>
      </trkpt>
      <trkpt lat="42.89578" lon="1.45195">
        <ele>1352</ele>
        <time>2026-03-24T15:02:40Z</time>
      </trkpt>
      <trkpt lat="42.89585" lon="1.45204">
        <ele>1348</ele>
        <time>2026-03-24T15:02:49Z</time>
      </trkpt>
      <trkpt lat="42.89591" lon="1.45214">
        <ele>1347</ele>
        <time>2026-03-24T15:02:57Z</time>
      </trkpt>
      <trkpt lat="42.89598" lon="1.45222">
        <ele>1343</ele>
        <time>2026-03-24T15:03:06Z</time>
      </trkpt>
      <trkpt lat="42.89606" lon="1.45227">
        <ele>1340</ele>
        <time>2026-03-24T15:03:14Z</time>
      </trkpt>
      <trkpt lat="42.89611" lon="1.45238">
        <ele>1336</ele>
        <time>2026-03-24T15:03:24Z</time>
      </trkpt>
      <trkpt lat="42.8962" lon="1.45233">
        <ele>1332</ele>
        <time>2026-03-24T15:03:32Z</time>
      </trkpt>
      <trkpt lat="42.89625" lon="1.45244">
        <ele>1328</ele>
        <time>2026-03-24T15:04:02Z</time>
      </trkpt>
      <trkpt lat="42.8963" lon="1.45255">
        <ele>1323</ele>
        <time>2026-03-24T15:04:11Z</time>
      </trkpt>
      <trkpt lat="42.89631" lon="1.45269">
        <ele>1322</ele>
        <time>2026-03-24T15:04:18Z</time>
      </trkpt>
      <trkpt lat="42.8964" lon="1.45271">
        <ele>1324</ele>
        <time>2026-03-24T15:04:51Z</time>
      </trkpt>
      <trkpt lat="42.89645" lon="1.45282">
        <ele>1320</ele>
        <time>2026-03-24T15:04:58Z</time>
      </trkpt>
      <trkpt lat="42.89647" lon="1.45295">
        <ele>1317</ele>
        <time>2026-03-24T15:05:07Z</time>
      </trkpt>
      <trkpt lat="42.89655" lon="1.45303">
        <ele>1314</ele>
        <time>2026-03-24T15:05:17Z</time>
      </trkpt>
      <trkpt lat="42.89661" lon="1.45327">
        <ele>1309</ele>
        <time>2026-03-24T15:05:33Z</time>
      </trkpt>
      <trkpt lat="42.89664" lon="1.45343">
        <ele>1306</ele>
        <time>2026-03-24T15:05:44Z</time>
      </trkpt>
      <trkpt lat="42.89663" lon="1.45355">
        <ele>1305</ele>
        <time>2026-03-24T15:05:53Z</time>
      </trkpt>
      <trkpt lat="42.89663" lon="1.45368">
        <ele>1300</ele>
        <time>2026-03-24T15:06:05Z</time>
      </trkpt>
      <trkpt lat="42.89666" lon="1.45386">
        <ele>1294</ele>
        <time>2026-03-24T15:06:18Z</time>
      </trkpt>
      <trkpt lat="42.89664" lon="1.45399">
        <ele>1293</ele>
        <time>2026-03-24T15:06:29Z</time>
      </trkpt>
      <trkpt lat="42.89673" lon="1.45397">
        <ele>1290</ele>
        <time>2026-03-24T15:06:44Z</time>
      </trkpt>
      <trkpt lat="42.89681" lon="1.45389">
        <ele>1287</ele>
        <time>2026-03-24T15:06:53Z</time>
      </trkpt>
      <trkpt lat="42.89689" lon="1.45386">
        <ele>1283</ele>
        <time>2026-03-24T15:07:02Z</time>
      </trkpt>
      <trkpt lat="42.89697" lon="1.45379">
        <ele>1250</ele>
        <time>2026-03-24T15:07:13Z</time>
      </trkpt>
      <trkpt lat="42.89705" lon="1.45372">
        <ele>1250</ele>
        <time>2026-03-24T15:07:21Z</time>
      </trkpt>
      <trkpt lat="42.89713" lon="1.45365">
        <ele>1250</ele>
        <time>2026-03-24T15:07:29Z</time>
      </trkpt>
      <trkpt lat="42.89721" lon="1.45359">
        <ele>1250</ele>
        <time>2026-03-24T15:07:38Z</time>
      </trkpt>
      <trkpt lat="42.8973" lon="1.45352">
        <ele>1250</ele>
        <time>2026-03-24T15:07:47Z</time>
      </trkpt>
      <trkpt lat="42.89738" lon="1.45346">
        <ele>1250</ele>
        <time>2026-03-24T15:07:55Z</time>
      </trkpt>
      <trkpt lat="42.89746" lon="1.4534">
        <ele>1250</ele>
        <time>2026-03-24T15:08:04Z</time>
      </trkpt>
      <trkpt lat="42.89755" lon="1.45335">
        <ele>1250</ele>
        <time>2026-03-24T15:08:13Z</time>
      </trkpt>
      <trkpt lat="42.89763" lon="1.4533">
        <ele>1250</ele>
        <time>2026-03-24T15:08:22Z</time>
      </trkpt>
      <trkpt lat="42.89779" lon="1.45319">
        <ele>1250</ele>
        <time>2026-03-24T15:08:38Z</time>
      </trkpt>
      <trkpt lat="42.8979" lon="1.4531">
        <ele>1250</ele>
        <time>2026-03-24T15:08:50Z</time>
      </trkpt>
      <trkpt lat="42.898" lon="1.45303">
        <ele>1250</ele>
        <time>2026-03-24T15:09:00Z</time>
      </trkpt>
      <trkpt lat="42.89808" lon="1.453">
        <ele>1250</ele>
        <time>2026-03-24T15:09:09Z</time>
      </trkpt>
      <trkpt lat="42.89816" lon="1.45292">
        <ele>1250</ele>
        <time>2026-03-24T15:09:19Z</time>
      </trkpt>
      <trkpt lat="42.89824" lon="1.45286">
        <ele>1257</ele>
        <time>2026-03-24T15:09:28Z</time>
      </trkpt>
      <trkpt lat="42.89832" lon="1.4528">
        <ele>1248</ele>
        <time>2026-03-24T15:09:37Z</time>
      </trkpt>
      <trkpt lat="42.8984" lon="1.45275">
        <ele>1248</ele>
        <time>2026-03-24T15:09:48Z</time>
      </trkpt>
      <trkpt lat="42.8985" lon="1.45272">
        <ele>1246</ele>
        <time>2026-03-24T15:09:58Z</time>
      </trkpt>
      <trkpt lat="42.89858" lon="1.45269">
        <ele>1248</ele>
        <time>2026-03-24T15:10:07Z</time>
      </trkpt>
      <trkpt lat="42.89869" lon="1.45269">
        <ele>1248</ele>
        <time>2026-03-24T15:10:15Z</time>
      </trkpt>
    </trkseg>
  </trk>
</gpx>